sensor_id;sensor_type;location;lat;lon;timestamp;temperature;humidity
51661;DHT22;37741;49.748;8.490;2023-07-29T00:02:02;20.50;82.10
51661;DHT22;37741;49.748;8.490;2023-07-29T00:04:28;20.50;82.10
51661;DHT22;37741;49.748;8.490;2023-07-29T00:07:15;20.50;82.10
51661;DHT22;37741;49.748;8.490;2023-07-29T00:09:41;20.50;82.30
51661;DHT22;37741;49.748;8.490;2023-07-29T00:12:11;20.40;82.10
51661;DHT22;37741;49.748;8.490;2023-07-29T00:15:04;20.50;82.30
51661;DHT22;37741;49.748;8.490;2023-07-29T00:17:39;20.40;82.40
51661;DHT22;37741;49.748;8.490;2023-07-29T00:20:09;20.40;82.40
51661;DHT22;37741;49.748;8.490;2023-07-29T00:22:35;20.40;82.60
51661;DHT22;37741;49.748;8.490;2023-07-29T00:25:06;20.40;82.70
51661;DHT22;37741;49.748;8.490;2023-07-29T00:27:31;20.30;82.70
51661;DHT22;37741;49.748;8.490;2023-07-29T00:29:57;20.30;82.70
51661;DHT22;37741;49.748;8.490;2023-07-29T00:32:23;20.30;82.70
51661;DHT22;37741;49.748;8.490;2023-07-29T00:34:51;20.30;82.80
51661;DHT22;37741;49.748;8.490;2023-07-29T00:37:17;20.30;82.90
51661;DHT22;37741;49.748;8.490;2023-07-29T00:39:50;20.30;82.90
51661;DHT22;37741;49.748;8.490;2023-07-29T00:42:16;20.20;83.00
51661;DHT22;37741;49.748;8.490;2023-07-29T00:44:52;20.20;83.00
51661;DHT22;37741;49.748;8.490;2023-07-29T00:47:19;20.20;83.10
51661;DHT22;37741;49.748;8.490;2023-07-29T00:50:01;20.20;83.20
51661;DHT22;37741;49.748;8.490;2023-07-29T00:52:28;20.20;83.30
51661;DHT22;37741;49.748;8.490;2023-07-29T00:55:20;20.20;83.20
51661;DHT22;37741;49.748;8.490;2023-07-29T00:57:49;20.20;83.20
51661;DHT22;37741;49.748;8.490;2023-07-29T01:00:33;20.10;83.10
51661;DHT22;37741;49.748;8.490;2023-07-29T01:03:07;20.10;83.20
51661;DHT22;37741;49.748;8.490;2023-07-29T01:08:49;20.10;83.40
51661;DHT22;37741;49.748;8.490;2023-07-29T01:11:48;20.10;83.40
51661;DHT22;37741;49.748;8.490;2023-07-29T01:15:22;20.10;83.50
51661;DHT22;37741;49.748;8.490;2023-07-29T01:18:43;20.10;83.50
51661;DHT22;37741;49.748;8.490;2023-07-29T01:21:08;20.10;83.50
51661;DHT22;37741;49.748;8.490;2023-07-29T01:23:34;20.10;83.50
51661;DHT22;37741;49.748;8.490;2023-07-29T01:26:03;20.10;83.60
51661;DHT22;37741;49.748;8.490;2023-07-29T01:28:30;20.10;83.70
51661;DHT22;37741;49.748;8.490;2023-07-29T01:31:37;20.10;83.70
51661;DHT22;37741;49.748;8.490;2023-07-29T01:34:26;20.00;83.70
51661;DHT22;37741;49.748;8.490;2023-07-29T01:36:57;20.00;83.70
51661;DHT22;37741;49.748;8.490;2023-07-29T01:39:25;20.00;84.00
51661;DHT22;37741;49.748;8.490;2023-07-29T01:41:56;20.00;83.80
51661;DHT22;37741;49.748;8.490;2023-07-29T01:44:27;20.00;83.80
51661;DHT22;37741;49.748;8.490;2023-07-29T01:46:54;20.00;84.00
51661;DHT22;37741;49.748;8.490;2023-07-29T01:49:22;20.00;83.90
51661;DHT22;37741;49.748;8.490;2023-07-29T01:51:47;20.00;83.90
51661;DHT22;37741;49.748;8.490;2023-07-29T01:54:16;20.00;83.90
51661;DHT22;37741;49.748;8.490;2023-07-29T01:57:01;20.00;83.80
51661;DHT22;37741;49.748;8.490;2023-07-29T01:59:27;20.00;83.90
51661;DHT22;37741;49.748;8.490;2023-07-29T02:01:53;19.90;83.90
51661;DHT22;37741;49.748;8.490;2023-07-29T02:04:25;20.00;84.00
51661;DHT22;37741;49.748;8.490;2023-07-29T02:06:56;20.00;84.00
51661;DHT22;37741;49.748;8.490;2023-07-29T02:09:23;20.00;84.00
51661;DHT22;37741;49.748;8.490;2023-07-29T02:11:59;19.90;84.00
51661;DHT22;37741;49.748;8.490;2023-07-29T02:14:42;20.00;84.00
51661;DHT22;37741;49.748;8.490;2023-07-29T02:17:21;19.90;84.00
51661;DHT22;37741;49.748;8.490;2023-07-29T02:19:48;19.90;83.90
51661;DHT22;37741;49.748;8.490;2023-07-29T02:22:19;20.00;84.00
51661;DHT22;37741;49.748;8.490;2023-07-29T02:24:51;20.00;84.00
51661;DHT22;37741;49.748;8.490;2023-07-29T02:27:18;20.00;84.00
51661;DHT22;37741;49.748;8.490;2023-07-29T02:29:45;20.00;84.00
51661;DHT22;37741;49.748;8.490;2023-07-29T02:32:23;20.00;83.80
51661;DHT22;37741;49.748;8.490;2023-07-29T02:35:02;20.00;84.00
51661;DHT22;37741;49.748;8.490;2023-07-29T02:37:34;20.10;83.90
51661;DHT22;37741;49.748;8.490;2023-07-29T02:40:09;20.00;83.80
51661;DHT22;37741;49.748;8.490;2023-07-29T02:42:35;20.00;83.80
51661;DHT22;37741;49.748;8.490;2023-07-29T02:45:04;20.00;83.70
51661;DHT22;37741;49.748;8.490;2023-07-29T02:47:33;20.10;83.60
51661;DHT22;37741;49.748;8.490;2023-07-29T02:49:59;20.10;83.70
51661;DHT22;37741;49.748;8.490;2023-07-29T02:52:29;20.10;83.80
51661;DHT22;37741;49.748;8.490;2023-07-29T02:55:08;20.10;84.00
51661;DHT22;37741;49.748;8.490;2023-07-29T02:57:34;20.10;83.50
51661;DHT22;37741;49.748;8.490;2023-07-29T03:00:12;20.10;83.60
51661;DHT22;37741;49.748;8.490;2023-07-29T03:02:47;20.10;83.50
51661;DHT22;37741;49.748;8.490;2023-07-29T03:05:13;20.10;83.60
51661;DHT22;37741;49.748;8.490;2023-07-29T03:07:44;20.10;83.80
51661;DHT22;37741;49.748;8.490;2023-07-29T03:10:19;20.10;83.50
51661;DHT22;37741;49.748;8.490;2023-07-29T03:12:48;20.00;83.40
51661;DHT22;37741;49.748;8.490;2023-07-29T03:15:19;20.10;83.60
51661;DHT22;37741;49.748;8.490;2023-07-29T03:17:47;20.00;83.20
51661;DHT22;37741;49.748;8.490;2023-07-29T03:20:13;20.00;83.40
51661;DHT22;37741;49.748;8.490;2023-07-29T03:22:59;20.10;83.60
51661;DHT22;37741;49.748;8.490;2023-07-29T03:25:35;20.00;83.20
51661;DHT22;37741;49.748;8.490;2023-07-29T03:28:29;20.00;83.10
51661;DHT22;37741;49.748;8.490;2023-07-29T03:30:58;20.10;83.00
51661;DHT22;37741;49.748;8.490;2023-07-29T03:33:38;20.00;82.90
51661;DHT22;37741;49.748;8.490;2023-07-29T03:36:25;20.00;83.00
51661;DHT22;37741;49.748;8.490;2023-07-29T03:38:52;20.00;83.10
51661;DHT22;37741;49.748;8.490;2023-07-29T03:41:19;20.00;83.10
51661;DHT22;37741;49.748;8.490;2023-07-29T03:43:51;19.90;83.30
51661;DHT22;37741;49.748;8.490;2023-07-29T03:46:32;19.90;83.20
51661;DHT22;37741;49.748;8.490;2023-07-29T03:48:57;19.90;83.40
51661;DHT22;37741;49.748;8.490;2023-07-29T03:51:32;19.90;83.60
51661;DHT22;37741;49.748;8.490;2023-07-29T03:54:13;19.90;83.60
51661;DHT22;37741;49.748;8.490;2023-07-29T03:56:41;19.80;83.50
51661;DHT22;37741;49.748;8.490;2023-07-29T03:59:10;19.80;83.60
51661;DHT22;37741;49.748;8.490;2023-07-29T04:01:36;19.80;83.60
51661;DHT22;37741;49.748;8.490;2023-07-29T04:04:07;19.80;83.60
51661;DHT22;37741;49.748;8.490;2023-07-29T04:07:01;19.80;83.60
51661;DHT22;37741;49.748;8.490;2023-07-29T04:09:28;19.70;83.60
51661;DHT22;37741;49.748;8.490;2023-07-29T04:11:56;19.70;83.70
51661;DHT22;37741;49.748;8.490;2023-07-29T04:14:21;19.70;83.70
51661;DHT22;37741;49.748;8.490;2023-07-29T04:16:52;19.70;83.70
51661;DHT22;37741;49.748;8.490;2023-07-29T04:19:21;19.70;83.80
51661;DHT22;37741;49.748;8.490;2023-07-29T04:21:47;19.70;83.80
51661;DHT22;37741;49.748;8.490;2023-07-29T04:24:16;19.70;83.90
51661;DHT22;37741;49.748;8.490;2023-07-29T04:26:56;19.70;83.80
51661;DHT22;37741;49.748;8.490;2023-07-29T04:29:36;19.70;83.80
51661;DHT22;37741;49.748;8.490;2023-07-29T04:32:03;19.70;83.90
51661;DHT22;37741;49.748;8.490;2023-07-29T04:34:29;19.70;83.90
51661;DHT22;37741;49.748;8.490;2023-07-29T04:37:04;19.70;84.00
51661;DHT22;37741;49.748;8.490;2023-07-29T04:39:32;19.70;84.20
51661;DHT22;37741;49.748;8.490;2023-07-29T04:41:59;19.70;84.00
51661;DHT22;37741;49.748;8.490;2023-07-29T04:44:46;19.70;84.10
51661;DHT22;37741;49.748;8.490;2023-07-29T04:47:17;19.70;84.10
51661;DHT22;37741;49.748;8.490;2023-07-29T04:50:09;19.70;84.20
51661;DHT22;37741;49.748;8.490;2023-07-29T04:52:34;19.70;84.20
51661;DHT22;37741;49.748;8.490;2023-07-29T04:55:00;19.60;84.10
51661;DHT22;37741;49.748;8.490;2023-07-29T04:57:26;19.60;84.10
51661;DHT22;37741;49.748;8.490;2023-07-29T05:00:03;19.60;84.00
51661;DHT22;37741;49.748;8.490;2023-07-29T05:02:38;19.70;84.20
51661;DHT22;37741;49.748;8.490;2023-07-29T05:05:14;19.60;84.10
51661;DHT22;37741;49.748;8.490;2023-07-29T05:07:45;19.60;84.00
51661;DHT22;37741;49.748;8.490;2023-07-29T05:10:21;19.60;84.00
51661;DHT22;37741;49.748;8.490;2023-07-29T05:12:49;19.60;84.00
51661;DHT22;37741;49.748;8.490;2023-07-29T05:15:15;19.60;84.00
51661;DHT22;37741;49.748;8.490;2023-07-29T05:18:09;19.60;83.90
51661;DHT22;37741;49.748;8.490;2023-07-29T05:20:36;19.60;83.90
51661;DHT22;37741;49.748;8.490;2023-07-29T05:23:15;19.60;83.90
51661;DHT22;37741;49.748;8.490;2023-07-29T05:25:45;19.60;83.90
51661;DHT22;37741;49.748;8.490;2023-07-29T05:28:12;19.60;84.00
51661;DHT22;37741;49.748;8.490;2023-07-29T05:30:47;19.60;84.00
51661;DHT22;37741;49.748;8.490;2023-07-29T05:33:14;19.60;84.00
51661;DHT22;37741;49.748;8.490;2023-07-29T05:35:54;19.60;84.00
51661;DHT22;37741;49.748;8.490;2023-07-29T05:38:20;19.60;83.90
51661;DHT22;37741;49.748;8.490;2023-07-29T05:40:48;19.60;83.90
51661;DHT22;37741;49.748;8.490;2023-07-29T05:43:15;19.60;84.00
51661;DHT22;37741;49.748;8.490;2023-07-29T05:45:47;19.60;84.00
51661;DHT22;37741;49.748;8.490;2023-07-29T05:48:14;19.60;84.00
51661;DHT22;37741;49.748;8.490;2023-07-29T05:50:46;19.60;83.90
51661;DHT22;37741;49.748;8.490;2023-07-29T05:53:18;19.60;84.50
51661;DHT22;37741;49.748;8.490;2023-07-29T05:55:50;19.60;84.50
51661;DHT22;37741;49.748;8.490;2023-07-29T05:58:19;19.70;85.00
51661;DHT22;37741;49.748;8.490;2023-07-29T06:00:48;19.70;84.90
51661;DHT22;37741;49.748;8.490;2023-07-29T06:03:17;19.70;85.20
51661;DHT22;37741;49.748;8.490;2023-07-29T06:05:48;19.70;84.90
51661;DHT22;37741;49.748;8.490;2023-07-29T06:08:41;19.70;85.10
51661;DHT22;37741;49.748;8.490;2023-07-29T06:11:27;19.70;85.00
51661;DHT22;37741;49.748;8.490;2023-07-29T06:13:55;19.80;84.90
51661;DHT22;37741;49.748;8.490;2023-07-29T06:16:21;19.80;85.00
51661;DHT22;37741;49.748;8.490;2023-07-29T06:18:47;19.80;85.10
51661;DHT22;37741;49.748;8.490;2023-07-29T06:21:21;19.80;85.00
51661;DHT22;37741;49.748;8.490;2023-07-29T06:23:48;19.90;84.80
51661;DHT22;37741;49.748;8.490;2023-07-29T06:26:17;19.90;84.90
51661;DHT22;37741;49.748;8.490;2023-07-29T06:28:51;19.90;85.50
51661;DHT22;37741;49.748;8.490;2023-07-29T06:31:36;19.90;85.00
51661;DHT22;37741;49.748;8.490;2023-07-29T06:34:14;19.90;85.10
51661;DHT22;37741;49.748;8.490;2023-07-29T06:36:51;19.90;85.00
51661;DHT22;37741;49.748;8.490;2023-07-29T06:39:22;19.90;85.30
51661;DHT22;37741;49.748;8.490;2023-07-29T06:41:53;19.90;84.90
51661;DHT22;37741;49.748;8.490;2023-07-29T06:44:23;20.00;85.00
51661;DHT22;37741;49.748;8.490;2023-07-29T06:46:59;19.90;85.20
51661;DHT22;37741;49.748;8.490;2023-07-29T06:52:48;19.90;85.50
51661;DHT22;37741;49.748;8.490;2023-07-29T06:58:23;19.90;85.50
51661;DHT22;37741;49.748;8.490;2023-07-29T07:00:54;19.90;85.30
51661;DHT22;37741;49.748;8.490;2023-07-29T07:03:24;19.90;85.60
51661;DHT22;37741;49.748;8.490;2023-07-29T07:05:51;19.90;85.90
51661;DHT22;37741;49.748;8.490;2023-07-29T07:08:18;19.90;85.60
51661;DHT22;37741;49.748;8.490;2023-07-29T07:10:49;19.90;85.60
51661;DHT22;37741;49.748;8.490;2023-07-29T07:13:18;19.90;85.50
51661;DHT22;37741;49.748;8.490;2023-07-29T07:15:56;19.90;85.40
51661;DHT22;37741;49.748;8.490;2023-07-29T07:18:31;19.90;85.40
51661;DHT22;37741;49.748;8.490;2023-07-29T07:21:06;19.90;85.30
51661;DHT22;37741;49.748;8.490;2023-07-29T07:23:52;19.80;85.10
51661;DHT22;37741;49.748;8.490;2023-07-29T07:26:21;19.80;85.30
51661;DHT22;37741;49.748;8.490;2023-07-29T07:28:50;19.80;85.30
51661;DHT22;37741;49.748;8.490;2023-07-29T07:31:17;19.80;85.20
51661;DHT22;37741;49.748;8.490;2023-07-29T07:33:44;19.80;85.40
51661;DHT22;37741;49.748;8.490;2023-07-29T07:36:31;19.80;85.40
51661;DHT22;37741;49.748;8.490;2023-07-29T07:39:00;19.80;85.60
51661;DHT22;37741;49.748;8.490;2023-07-29T07:41:33;19.80;85.60
51661;DHT22;37741;49.748;8.490;2023-07-29T07:43:59;19.70;85.50
51661;DHT22;37741;49.748;8.490;2023-07-29T07:46:26;19.70;85.50
51661;DHT22;37741;49.748;8.490;2023-07-29T07:48:52;19.70;85.50
51661;DHT22;37741;49.748;8.490;2023-07-29T07:51:18;19.70;85.60
51661;DHT22;37741;49.748;8.490;2023-07-29T07:53:45;19.70;85.60
51661;DHT22;37741;49.748;8.490;2023-07-29T07:56:17;19.70;85.50
51661;DHT22;37741;49.748;8.490;2023-07-29T07:58:43;19.70;85.60
51661;DHT22;37741;49.748;8.490;2023-07-29T08:01:13;19.70;85.60
51661;DHT22;37741;49.748;8.490;2023-07-29T08:03:39;19.70;85.70
51661;DHT22;37741;49.748;8.490;2023-07-29T08:06:07;19.70;85.70
51661;DHT22;37741;49.748;8.490;2023-07-29T08:08:33;19.70;85.60
51661;DHT22;37741;49.748;8.490;2023-07-29T08:11:04;19.70;85.70
51661;DHT22;37741;49.748;8.490;2023-07-29T08:13:33;19.70;85.70
51661;DHT22;37741;49.748;8.490;2023-07-29T08:16:15;19.60;85.60
51661;DHT22;37741;49.748;8.490;2023-07-29T08:18:42;19.70;85.70
51661;DHT22;37741;49.748;8.490;2023-07-29T08:21:08;19.60;85.90
51661;DHT22;37741;49.748;8.490;2023-07-29T08:23:36;19.60;86.20
51661;DHT22;37741;49.748;8.490;2023-07-29T08:26:07;19.60;86.00
51661;DHT22;37741;49.748;8.490;2023-07-29T08:28:36;19.70;86.00
51661;DHT22;37741;49.748;8.490;2023-07-29T08:31:05;19.60;86.40
51661;DHT22;37741;49.748;8.490;2023-07-29T08:33:38;19.70;86.40
51661;DHT22;37741;49.748;8.490;2023-07-29T08:36:12;19.70;87.30
51661;DHT22;37741;49.748;8.490;2023-07-29T08:38:38;19.70;86.70
51661;DHT22;37741;49.748;8.490;2023-07-29T08:41:46;19.70;87.40
51661;DHT22;37741;49.748;8.490;2023-07-29T08:44:32;19.70;86.90
51661;DHT22;37741;49.748;8.490;2023-07-29T08:47:00;19.70;87.20
51661;DHT22;37741;49.748;8.490;2023-07-29T08:49:33;19.80;87.50
51661;DHT22;37741;49.748;8.490;2023-07-29T08:52:14;19.80;87.20
51661;DHT22;37741;49.748;8.490;2023-07-29T08:54:40;19.80;87.30
51661;DHT22;37741;49.748;8.490;2023-07-29T08:57:12;19.80;87.30
51661;DHT22;37741;49.748;8.490;2023-07-29T08:59:47;19.80;87.30
51661;DHT22;37741;49.748;8.490;2023-07-29T09:02:23;19.90;87.30
51661;DHT22;37741;49.748;8.490;2023-07-29T09:04:54;19.90;87.50
51661;DHT22;37741;49.748;8.490;2023-07-29T09:07:34;19.90;87.60
51661;DHT22;37741;49.748;8.490;2023-07-29T09:10:04;19.90;87.60
51661;DHT22;37741;49.748;8.490;2023-07-29T09:12:31;20.00;87.40
51661;DHT22;37741;49.748;8.490;2023-07-29T09:15:03;20.00;87.70
51661;DHT22;37741;49.748;8.490;2023-07-29T09:17:32;20.00;87.40
51661;DHT22;37741;49.748;8.490;2023-07-29T09:19:59;20.10;87.60
51661;DHT22;37741;49.748;8.490;2023-07-29T09:22:27;20.10;87.30
51661;DHT22;37741;49.748;8.490;2023-07-29T09:24:56;20.00;87.30
51661;DHT22;37741;49.748;8.490;2023-07-29T09:27:28;20.10;87.40
51661;DHT22;37741;49.748;8.490;2023-07-29T09:30:07;20.10;87.40
51661;DHT22;37741;49.748;8.490;2023-07-29T09:32:41;20.10;87.30
51661;DHT22;37741;49.748;8.490;2023-07-29T09:35:13;20.20;87.60
51661;DHT22;37741;49.748;8.490;2023-07-29T09:37:50;20.20;87.60
51661;DHT22;37741;49.748;8.490;2023-07-29T09:40:17;20.20;87.70
51661;DHT22;37741;49.748;8.490;2023-07-29T09:42:50;20.20;87.60
51661;DHT22;37741;49.748;8.490;2023-07-29T09:45:37;20.30;87.80
51661;DHT22;37741;49.748;8.490;2023-07-29T09:48:04;20.30;87.50
51661;DHT22;37741;49.748;8.490;2023-07-29T09:50:44;20.40;87.40
51661;DHT22;37741;49.748;8.490;2023-07-29T09:53:21;20.40;87.20
51661;DHT22;37741;49.748;8.490;2023-07-29T09:55:48;20.50;87.20
51661;DHT22;37741;49.748;8.490;2023-07-29T09:58:26;20.60;86.90
51661;DHT22;37741;49.748;8.490;2023-07-29T10:00:52;20.60;86.80
51661;DHT22;37741;49.748;8.490;2023-07-29T10:03:21;20.70;86.50
51661;DHT22;37741;49.748;8.490;2023-07-29T10:05:49;20.70;86.20
51661;DHT22;37741;49.748;8.490;2023-07-29T10:08:24;20.70;86.10
51661;DHT22;37741;49.748;8.490;2023-07-29T10:10:52;20.80;86.80
51661;DHT22;37741;49.748;8.490;2023-07-29T10:13:19;20.90;86.70
51661;DHT22;37741;49.748;8.490;2023-07-29T10:15:49;21.00;86.60
51661;DHT22;37741;49.748;8.490;2023-07-29T10:18:16;21.00;86.20
51661;DHT22;37741;49.748;8.490;2023-07-29T10:20:46;21.00;86.40
51661;DHT22;37741;49.748;8.490;2023-07-29T10:23:15;21.10;86.00
51661;DHT22;37741;49.748;8.490;2023-07-29T10:26:02;21.10;85.70
51661;DHT22;37741;49.748;8.490;2023-07-29T10:28:36;21.10;85.60
51661;DHT22;37741;49.748;8.490;2023-07-29T10:31:26;21.20;85.20
51661;DHT22;37741;49.748;8.490;2023-07-29T10:33:54;21.20;84.80
51661;DHT22;37741;49.748;8.490;2023-07-29T10:36:20;21.30;85.00
51661;DHT22;37741;49.748;8.490;2023-07-29T10:38:47;21.30;85.30
51661;DHT22;37741;49.748;8.490;2023-07-29T10:41:23;21.30;85.40
51661;DHT22;37741;49.748;8.490;2023-07-29T10:43:50;21.30;84.90
51661;DHT22;37741;49.748;8.490;2023-07-29T10:46:19;21.40;85.00
51661;DHT22;37741;49.748;8.490;2023-07-29T10:48:57;21.40;84.30
51661;DHT22;37741;49.748;8.490;2023-07-29T10:51:36;21.50;84.00
51661;DHT22;37741;49.748;8.490;2023-07-29T10:54:13;21.40;83.10
51661;DHT22;37741;49.748;8.490;2023-07-29T10:57:00;21.50;82.70
51661;DHT22;37741;49.748;8.490;2023-07-29T10:59:33;21.40;82.60
51661;DHT22;37741;49.748;8.490;2023-07-29T11:02:22;21.50;83.20
51661;DHT22;37741;49.748;8.490;2023-07-29T11:04:58;21.50;82.70
51661;DHT22;37741;49.748;8.490;2023-07-29T11:07:26;21.40;82.50
51661;DHT22;37741;49.748;8.490;2023-07-29T11:09:58;21.50;82.10
51661;DHT22;37741;49.748;8.490;2023-07-29T11:12:47;21.40;81.90
51661;DHT22;37741;49.748;8.490;2023-07-29T11:17:52;21.40;82.10
51661;DHT22;37741;49.748;8.490;2023-07-29T11:20:34;21.50;81.80
51661;DHT22;37741;49.748;8.490;2023-07-29T11:23:05;21.50;80.90
51661;DHT22;37741;49.748;8.490;2023-07-29T11:25:32;21.50;80.60
51661;DHT22;37741;49.748;8.490;2023-07-29T11:28:24;21.60;80.70
51661;DHT22;37741;49.748;8.490;2023-07-29T11:30:51;21.60;81.00
51661;DHT22;37741;49.748;8.490;2023-07-29T11:33:24;21.60;80.10
51661;DHT22;37741;49.748;8.490;2023-07-29T11:35:55;21.60;80.30
51661;DHT22;37741;49.748;8.490;2023-07-29T11:38:24;21.70;80.20
51661;DHT22;37741;49.748;8.490;2023-07-29T11:41:03;21.70;80.10
51661;DHT22;37741;49.748;8.490;2023-07-29T11:43:29;21.70;80.50
51661;DHT22;37741;49.748;8.490;2023-07-29T11:46:01;21.70;80.50
51661;DHT22;37741;49.748;8.490;2023-07-29T11:48:35;21.80;80.10
51661;DHT22;37741;49.748;8.490;2023-07-29T11:51:02;21.80;79.40
51661;DHT22;37741;49.748;8.490;2023-07-29T11:53:31;21.80;78.50
51661;DHT22;37741;49.748;8.490;2023-07-29T11:55:57;21.90;78.50
51661;DHT22;37741;49.748;8.490;2023-07-29T11:58:23;21.90;78.30
51661;DHT22;37741;49.748;8.490;2023-07-29T12:00:49;22.00;77.10
51661;DHT22;37741;49.748;8.490;2023-07-29T12:03:16;22.00;77.20
51661;DHT22;37741;49.748;8.490;2023-07-29T12:05:45;22.10;76.30
51661;DHT22;37741;49.748;8.490;2023-07-29T12:08:12;22.10;76.60
51661;DHT22;37741;49.748;8.490;2023-07-29T12:10:38;22.20;75.70
51661;DHT22;37741;49.748;8.490;2023-07-29T12:13:07;22.30;75.20
51661;DHT22;37741;49.748;8.490;2023-07-29T12:15:33;22.40;74.70
51661;DHT22;37741;49.748;8.490;2023-07-29T12:17:59;22.50;74.20
51661;DHT22;37741;49.748;8.490;2023-07-29T12:20:40;22.50;73.60
51661;DHT22;37741;49.748;8.490;2023-07-29T12:23:16;22.50;73.50
51661;DHT22;37741;49.748;8.490;2023-07-29T12:25:41;22.60;72.50
51661;DHT22;37741;49.748;8.490;2023-07-29T12:28:12;22.70;72.70
51661;DHT22;37741;49.748;8.490;2023-07-29T12:30:42;22.70;72.00
51661;DHT22;37741;49.748;8.490;2023-07-29T12:33:09;22.70;71.60
51661;DHT22;37741;49.748;8.490;2023-07-29T12:35:47;22.80;71.40
51661;DHT22;37741;49.748;8.490;2023-07-29T12:38:21;22.90;69.80
51661;DHT22;37741;49.748;8.490;2023-07-29T12:40:46;22.90;70.90
51661;DHT22;37741;49.748;8.490;2023-07-29T12:43:12;23.00;71.00
51661;DHT22;37741;49.748;8.490;2023-07-29T12:45:58;23.00;70.00
51661;DHT22;37741;49.748;8.490;2023-07-29T12:48:39;23.00;69.50
51661;DHT22;37741;49.748;8.490;2023-07-29T12:51:10;23.20;69.10
51661;DHT22;37741;49.748;8.490;2023-07-29T12:53:51;23.20;68.90
51661;DHT22;37741;49.748;8.490;2023-07-29T12:56:41;23.30;68.30
51661;DHT22;37741;49.748;8.490;2023-07-29T12:59:12;23.40;66.60
51661;DHT22;37741;49.748;8.490;2023-07-29T13:01:38;23.50;67.00
51661;DHT22;37741;49.748;8.490;2023-07-29T13:04:04;23.60;66.80
51661;DHT22;37741;49.748;8.490;2023-07-29T13:06:39;23.80;65.50
51661;DHT22;37741;49.748;8.490;2023-07-29T13:09:09;23.90;65.70
51661;DHT22;37741;49.748;8.490;2023-07-29T13:11:37;24.00;65.10
51661;DHT22;37741;49.748;8.490;2023-07-29T13:14:18;24.10;63.60
51661;DHT22;37741;49.748;8.490;2023-07-29T13:16:43;24.20;63.60
51661;DHT22;37741;49.748;8.490;2023-07-29T13:19:12;24.30;63.30
51661;DHT22;37741;49.748;8.490;2023-07-29T13:21:48;24.40;62.60
51661;DHT22;37741;49.748;8.490;2023-07-29T13:24:13;24.50;63.20
51661;DHT22;37741;49.748;8.490;2023-07-29T13:26:45;24.60;63.30
51661;DHT22;37741;49.748;8.490;2023-07-29T13:29:28;24.70;62.60
51661;DHT22;37741;49.748;8.490;2023-07-29T13:31:54;24.80;63.00
51661;DHT22;37741;49.748;8.490;2023-07-29T13:34:20;24.80;63.00
51661;DHT22;37741;49.748;8.490;2023-07-29T13:36:52;24.80;62.40
51661;DHT22;37741;49.748;8.490;2023-07-29T13:39:27;24.80;62.90
51661;DHT22;37741;49.748;8.490;2023-07-29T13:42:01;24.80;61.80
51661;DHT22;37741;49.748;8.490;2023-07-29T13:44:32;24.90;62.30
51661;DHT22;37741;49.748;8.490;2023-07-29T13:46:58;24.90;62.00
51661;DHT22;37741;49.748;8.490;2023-07-29T13:49:36;24.90;61.70
51661;DHT22;37741;49.748;8.490;2023-07-29T13:52:07;25.00;62.00
51661;DHT22;37741;49.748;8.490;2023-07-29T13:54:38;25.00;62.30
51661;DHT22;37741;49.748;8.490;2023-07-29T13:57:06;25.10;62.90
51661;DHT22;37741;49.748;8.490;2023-07-29T13:59:39;25.20;62.40
51661;DHT22;37741;49.748;8.490;2023-07-29T14:02:08;25.40;61.50
51661;DHT22;37741;49.748;8.490;2023-07-29T14:04:35;25.40;62.70
51661;DHT22;37741;49.748;8.490;2023-07-29T14:07:14;25.40;62.20
51661;DHT22;37741;49.748;8.490;2023-07-29T14:09:49;25.40;61.80
51661;DHT22;37741;49.748;8.490;2023-07-29T14:12:15;25.50;61.60
51661;DHT22;37741;49.748;8.490;2023-07-29T14:14:42;25.50;62.10
51661;DHT22;37741;49.748;8.490;2023-07-29T14:17:22;25.60;62.00
51661;DHT22;37741;49.748;8.490;2023-07-29T14:19:55;25.50;60.60
51661;DHT22;37741;49.748;8.490;2023-07-29T14:22:22;25.50;61.60
51661;DHT22;37741;49.748;8.490;2023-07-29T14:24:53;25.50;61.30
51661;DHT22;37741;49.748;8.490;2023-07-29T14:27:24;25.50;60.40
51661;DHT22;37741;49.748;8.490;2023-07-29T14:29:55;25.50;60.80
51661;DHT22;37741;49.748;8.490;2023-07-29T14:32:27;25.50;61.40
51661;DHT22;37741;49.748;8.490;2023-07-29T14:34:54;25.50;60.00
51661;DHT22;37741;49.748;8.490;2023-07-29T14:37:19;25.60;60.90
51661;DHT22;37741;49.748;8.490;2023-07-29T14:39:45;25.60;60.80
51661;DHT22;37741;49.748;8.490;2023-07-29T14:42:10;25.70;61.40
51661;DHT22;37741;49.748;8.490;2023-07-29T14:44:39;25.80;60.50
51661;DHT22;37741;49.748;8.490;2023-07-29T14:47:11;25.90;60.70
51661;DHT22;37741;49.748;8.490;2023-07-29T14:49:45;25.90;60.40
51661;DHT22;37741;49.748;8.490;2023-07-29T14:52:11;25.90;59.70
51661;DHT22;37741;49.748;8.490;2023-07-29T14:54:38;26.00;61.00
51661;DHT22;37741;49.748;8.490;2023-07-29T14:57:12;26.10;61.10
51661;DHT22;37741;49.748;8.490;2023-07-29T14:59:40;26.10;59.60
51661;DHT22;37741;49.748;8.490;2023-07-29T15:02:11;26.20;60.00
51661;DHT22;37741;49.748;8.490;2023-07-29T15:04:45;26.20;60.30
51661;DHT22;37741;49.748;8.490;2023-07-29T15:07:13;26.20;60.00
51661;DHT22;37741;49.748;8.490;2023-07-29T15:09:45;26.20;60.20
51661;DHT22;37741;49.748;8.490;2023-07-29T15:12:11;26.20;60.30
51661;DHT22;37741;49.748;8.490;2023-07-29T15:14:53;26.20;60.50
51661;DHT22;37741;49.748;8.490;2023-07-29T15:17:18;26.30;60.80
51661;DHT22;37741;49.748;8.490;2023-07-29T15:19:47;26.40;60.80
51661;DHT22;37741;49.748;8.490;2023-07-29T15:22:23;26.50;60.50
51661;DHT22;37741;49.748;8.490;2023-07-29T15:24:51;26.50;60.10
51661;DHT22;37741;49.748;8.490;2023-07-29T15:27:17;26.60;59.80
51661;DHT22;37741;49.748;8.490;2023-07-29T15:29:47;26.70;60.20
51661;DHT22;37741;49.748;8.490;2023-07-29T15:32:12;26.80;59.90
51661;DHT22;37741;49.748;8.490;2023-07-29T15:34:41;26.90;59.10
51661;DHT22;37741;49.748;8.490;2023-07-29T15:37:10;27.00;59.20
51661;DHT22;37741;49.748;8.490;2023-07-29T15:39:39;27.00;58.80
51661;DHT22;37741;49.748;8.490;2023-07-29T15:42:07;27.10;59.00
51661;DHT22;37741;49.748;8.490;2023-07-29T15:44:39;27.10;58.50
51661;DHT22;37741;49.748;8.490;2023-07-29T15:47:06;27.20;59.00
51661;DHT22;37741;49.748;8.490;2023-07-29T15:49:38;27.30;58.90
51661;DHT22;37741;49.748;8.490;2023-07-29T15:52:03;27.40;58.10
51661;DHT22;37741;49.748;8.490;2023-07-29T15:54:29;27.60;58.10
51661;DHT22;37741;49.748;8.490;2023-07-29T15:56:56;27.60;58.10
51661;DHT22;37741;49.748;8.490;2023-07-29T15:59:44;27.80;58.50
51661;DHT22;37741;49.748;8.490;2023-07-29T16:02:12;27.90;57.70
51661;DHT22;37741;49.748;8.490;2023-07-29T16:04:43;27.90;56.40
51661;DHT22;37741;49.748;8.490;2023-07-29T16:07:12;28.00;57.10
51661;DHT22;37741;49.748;8.490;2023-07-29T16:09:39;28.00;57.50
51661;DHT22;37741;49.748;8.490;2023-07-29T16:12:05;28.10;57.50
51661;DHT22;37741;49.748;8.490;2023-07-29T16:14:31;28.10;57.20